Neptune Voyager — C6FU7 — position and weather

sailwx.info

Track history (hours):
 
Tides and Currents Weather Stations Pressure Air Temp Water Temp Dewpoint Dewpoint Depression Visibility Wind Speed Wind Dir Waves Ship Positions

Neptune Voyager

Last reported at 2015-Jan-10 18:22 UTC. Time now 2015-Jan-30 02:38 UTC.
Position N 29°21' W 094°45'.
Warning: this ship's position is 19 days out of date.

Type: Ship (hazmat cat A). MMSI: 311482000.

Date/timePositionNaut miles runAvg speedWind from/ knotsBaromVisibWave heightAir tempDewpointWater temp
2015-Jan-10 18:22N 29°21' W 094°45'0 0.1
2015-Jan-10 17:25N 29°21' W 094°45'0 0.0
2015-Jan-10 16:28N 29°21' W 094°45'0 0.0
2015-Jan-10 15:22N 29°21' W 094°45'0 0.0
2015-Jan-10 14:28N 29°21' W 094°45'10 0.8
2015-Jan-10 02:32N 29°29' W 094°51'1010.5
2015-Jan-10 01:33N 29°37' W 094°58'8 8.1
2015-Jan-10 00:33N 29°44' W 095°03'4 0.1
2015-Jan-08 17:33N 29°44' W 095°07'4 3.8
2015-Jan-08 16:33N 29°44' W 095°03'7 7.2
2015-Jan-08 15:33N 29°38' W 094°58'1111.1
2015-Jan-08 14:33N 29°29' W 094°52'  
Track history (hours):
 
Tides and Currents Weather Stations Pressure Air Temp Water Temp Dewpoint Dewpoint Depression Visibility Wind Speed Wind Dir Waves Ship Positions

Neptune Voyager

Last reported at 2015-Jan-10 18:22 UTC. Time now 2015-Jan-30 02:38 UTC.
Position N 29°21' W 094°45'.
Warning: this ship's position is 19 days out of date.

Type: Ship (hazmat cat A). MMSI: 311482000.

Date/timePositionNaut miles runAvg speedWind from/ knotsBaromVisibWave heightAir tempDewpointWater temp
2015-Jan-10 18:22N 29°21' W 094°45'0 0.1
2015-Jan-10 17:25N 29°21' W 094°45'0 0.0
2015-Jan-10 16:28N 29°21' W 094°45'0 0.0
2015-Jan-10 15:22N 29°21' W 094°45'0 0.0
2015-Jan-10 14:28N 29°21' W 094°45'10 0.8
2015-Jan-10 02:32N 29°29' W 094°51'1010.5
2015-Jan-10 01:33N 29°37' W 094°58'8 8.1
2015-Jan-10 00:33N 29°44' W 095°03'4 0.1
2015-Jan-08 17:33N 29°44' W 095°07'4 3.8
2015-Jan-08 16:33N 29°44' W 095°03'7 7.2
2015-Jan-08 15:33N 29°38' W 094°58'1111.1
2015-Jan-08 14:33N 29°29' W 094°52'  

Dump ship's entire track history